Mayer, AZ

4:22 PM MST on August 24, 2016 (GMT -0700)
Spring Valley off Hwy 69 | | Change Station
Active Advisory: Areal Flood Advisory

Elev 3980 ft 34.35 °N, 112.17 °W | Updated 5 seconds ago

Scattered Clouds
Scattered Clouds
81.0 °F
Feels Like 80 °F
N
4.0
Wind Variable Wind from SSE
Gusts 5.0 mph

Today
High -- | Low -- °F
--% Chance of Precip.
Yesterday
High -- | Low -- °F
Precip. -- in
Pressure 30.16 in
Visibility 10.0 miles
Clouds Few 10000 ft
Scattered Clouds 11000 ft
Heat Index 80 °F
Dew Point 53 °F
Humidity 38%
Rainfall 0.00 in
Snow Depth Not available.
5:56 AM 7:04 PM
Waning Gibbous, 52% visible
SPECI KPRC 242310Z 23012KT 10SM VCTS FEW100 SCT110 26/08 A3016 RMK AO2 LTG DSNT ALQDS T02560078
Pressure 30.16 in
Visibility 10.0 miles
Clouds Few 10000 ft
Scattered Clouds 11000 ft
Heat Index 80 °F
Dew Point 53 °F
Humidity 38%
Rainfall 0.00 in
Snow Depth Not available.
5:56 AM 7:04 PM
Waning Gibbous, 52% visible
SPECI KPRC 242310Z 23012KT 10SM VCTS FEW100 SCT110 26/08 A3016 RMK AO2 LTG DSNT ALQDS T02560078

10-Day Weather Forecast

Almanac

Astronomy

Aug. 24, 2016 Rise Set
Actual Time
Civil Twilight
Nautical Twilight
Astronomical Twilight
Moon
Length of Visible Light
Length of Day
Tomorrow will be .
, % of the Moon is Illuminated

Today's Extremes

State Highs State Lows

Community

WunderPhotos

Upload Photos

1,934,731 photos uploaded!

WunderBlog® & News

Nearby

Air Quality

  Air Quality AQ Index Pollutant
Not available.

Snow Depth

Station Depth Elevation

Earthquake Activity

City Distance Mag. Time & Date
Minimum magnitude displayed is 2.5.

Coastal Water Temperatures

Place Temperature

Stations

Nearby Weather Stations

Station Location Temp. Windchill Dew Point Humidity Wind Precip. Elev Updated Type
                   

Watches & Warnings

Areal Flood Advisory
Issued: 3:24 PM MDT Aug. 24, 2016 – National Weather Service

... The small stream Flood Advisory remains in effect until 500 PM MST
for Yavapai County...

At 320 PM MST... National Weather Service Doppler radar indicated
that heavy rainfall has moved southwest of Crown King and away from
the advisory area. However... as much as 3 inches of rain fell east
and northeast of Crown King earlier in the afternoon. Turkey Creek
and portions of Crown King Road are likley still experiencing some
flooding.

Some locations that will experience flooding include...
Crown King... Turney gulch group campground and Hazlett Hollow
Campground.

Precautionary/preparedness actions...


Lat... Lon 3430 11221 3422 11216 3406 11216 3406 11227
      3417 11233 3431 11237 3432 11228